createdAt,value
2023-03-02T00:00:45.776Z,63.12
2023-03-02T00:01:45.756Z,63.01
2023-03-02T00:02:45.900Z,63.01
2023-03-02T00:03:45.839Z,62.91
2023-03-02T00:04:45.716Z,62.91
2023-03-02T00:05:45.717Z,62.91
2023-03-02T00:06:45.706Z,62.91
2023-03-02T00:07:45.681Z,62.91
2023-03-02T00:08:45.709Z,63.01
2023-03-02T00:09:45.649Z,63.01
2023-03-02T00:10:45.661Z,63.12
2023-03-02T00:11:45.636Z,63.12
2023-03-02T00:12:45.625Z,63.22
2023-03-02T00:13:45.610Z,63.32
2023-03-02T00:14:45.653Z,63.32
2023-03-02T00:15:45.669Z,63.32
2023-03-02T00:16:45.619Z,63.32
2023-03-02T00:17:45.587Z,63.43
2023-03-02T00:18:45.591Z,63.43
2023-03-02T00:19:45.578Z,63.32
2023-03-02T00:20:45.590Z,63.32
2023-03-02T00:21:45.554Z,63.43
2023-03-02T00:22:45.555Z,63.32
2023-03-02T00:23:45.532Z,63.32
2023-03-02T00:24:45.524Z,63.32
2023-03-02T00:25:45.501Z,63.32
2023-03-02T00:26:45.510Z,63.32
2023-03-02T00:27:45.490Z,63.43
2023-03-02T00:28:45.490Z,63.32
2023-03-02T00:29:45.467Z,63.32
2023-03-02T00:30:45.461Z,63.32
2023-03-02T00:31:45.506Z,63.32
2023-03-02T00:32:45.482Z,63.22
2023-03-02T00:33:45.431Z,63.22
2023-03-02T00:34:45.433Z,63.12
2023-03-02T00:35:45.442Z,63.12
2023-03-02T00:36:45.398Z,63.25
2023-03-02T00:37:45.396Z,63.15
2023-03-02T00:38:45.411Z,63.15
2023-03-02T00:39:45.362Z,63.25
2023-03-02T00:40:45.356Z,63.35
2023-03-02T00:41:45.344Z,63.15
2023-03-02T00:42:45.338Z,63.15
2023-03-02T00:43:45.324Z,63.15
2023-03-02T00:44:45.341Z,63.15
2023-03-02T00:45:45.304Z,63.04
2023-03-02T00:46:45.378Z,63.15
2023-03-02T00:47:45.295Z,63.25
2023-03-02T00:48:45.292Z,63.46
2023-03-02T00:49:45.276Z,63.35
2023-03-02T00:50:45.278Z,63.35
2023-03-02T00:51:45.247Z,63.25
2023-03-02T00:52:45.250Z,63.46
2023-03-02T00:53:45.223Z,63.56
2023-03-02T00:54:45.216Z,63.56
2023-03-02T00:55:45.234Z,63.67
2023-03-02T00:56:45.212Z,63.67
2023-03-02T00:57:45.194Z,63.67
2023-03-02T00:58:45.190Z,63.78
2023-03-02T00:59:45.168Z,63.56
2023-03-02T01:00:45.164Z,63.49
2023-03-02T01:01:45.328Z,63.39
2023-03-02T01:02:45.202Z,63.39
2023-03-02T01:03:45.116Z,63.39
2023-03-02T01:04:45.108Z,63.28
2023-03-02T01:05:45.094Z,63.39
2023-03-02T01:06:45.103Z,63.39
2023-03-02T01:07:45.108Z,63.39
2023-03-02T01:08:45.067Z,63.39
2023-03-02T01:09:45.077Z,63.39
2023-03-02T01:10:45.060Z,63.59
2023-03-02T01:11:45.059Z,63.59
2023-03-02T01:12:45.049Z,63.59
2023-03-02T01:13:45.063Z,63.39
2023-03-02T01:14:45.022Z,63.28
2023-03-02T01:15:45.013Z,63.18
2023-03-02T01:16:45.005Z,63.18
2023-03-02T01:17:45.008Z,63.07
2023-03-02T01:18:44.993Z,62.86
2023-03-02T01:19:45.023Z,62.84
2023-03-02T01:20:44.972Z,62.62
2023-03-02T01:21:44.944Z,62.52
2023-03-02T01:22:44.947Z,62.52
2023-03-02T01:23:44.938Z,62.52
2023-03-02T01:24:44.923Z,62.52
2023-03-02T01:25:44.938Z,62.41
2023-03-02T01:26:44.915Z,62.52
2023-03-02T01:27:44.872Z,62.62
2023-03-02T01:28:44.869Z,62.65
2023-03-02T01:29:44.855Z,62.62
2023-03-02T01:30:44.846Z,62.62
2023-03-02T01:31:44.925Z,62.65
2023-03-02T01:32:44.837Z,62.76
2023-03-02T01:33:44.824Z,62.76
2023-03-02T01:34:44.845Z,62.76
2023-03-02T01:35:44.819Z,62.76
2023-03-02T01:36:44.810Z,62.76
2023-03-02T01:37:44.814Z,62.65
2023-03-02T01:38:44.879Z,62.62
2023-03-02T01:39:44.775Z,62.65
2023-03-02T01:40:44.759Z,62.52
2023-03-02T01:41:44.771Z,62.52
2023-03-02T01:42:44.745Z,62.41
2023-03-02T01:43:44.749Z,62.31
2023-03-02T01:44:44.720Z,62.31
2023-03-02T01:45:44.777Z,62.21
2023-03-02T01:46:44.694Z,62.21
2023-03-02T01:47:44.675Z,62.21
2023-03-02T01:48:44.660Z,62.21
2023-03-02T01:49:44.694Z,62.21
2023-03-02T01:50:44.651Z,62.10
2023-03-02T01:51:44.648Z,62.31
2023-03-02T01:52:44.650Z,62.31
2023-03-02T01:53:44.622Z,62.31
2023-03-02T01:54:44.619Z,62.31
2023-03-02T01:55:44.628Z,62.21
2023-03-02T01:56:44.583Z,62.31
2023-03-02T01:57:44.566Z,62.52
2023-03-02T01:58:44.586Z,62.45
2023-03-02T01:59:44.599Z,62.65
2023-03-02T02:00:44.686Z,62.86
2023-03-02T02:01:44.584Z,62.96
2023-03-02T02:02:44.534Z,63.07
2023-03-02T02:03:44.567Z,63.28
2023-03-02T02:04:44.513Z,63.39
2023-03-02T02:05:44.509Z,63.49
2023-03-02T02:06:44.510Z,63.49
2023-03-02T02:07:44.518Z,63.49
2023-03-02T02:08:44.457Z,63.59
2023-03-02T02:09:44.456Z,63.59
2023-03-02T02:10:44.456Z,63.70
2023-03-02T02:11:44.434Z,63.80
2023-03-02T02:12:44.417Z,63.90
2023-03-02T02:13:44.443Z,63.80
2023-03-02T02:14:44.407Z,63.70
2023-03-02T02:15:44.402Z,63.70
2023-03-02T02:16:44.448Z,63.70
2023-03-02T02:17:44.390Z,63.70
2023-03-02T02:18:44.381Z,63.80
2023-03-02T02:19:44.379Z,63.80
2023-03-02T02:20:44.366Z,63.80
2023-03-02T02:21:44.342Z,63.80
2023-03-02T02:22:44.333Z,63.80
2023-03-02T02:23:44.307Z,63.70
2023-03-02T02:24:44.307Z,63.59
2023-03-02T02:25:44.309Z,63.59
2023-03-02T02:26:44.284Z,63.49
2023-03-02T02:27:44.270Z,63.49
2023-03-02T02:28:44.259Z,63.35
2023-03-02T02:29:44.254Z,63.35
2023-03-02T02:30:44.239Z,63.25
2023-03-02T02:31:44.501Z,63.35
2023-03-02T02:32:44.264Z,63.35
2023-03-02T02:33:44.217Z,63.35
2023-03-02T02:34:44.209Z,63.35
2023-03-02T02:35:44.223Z,63.35
2023-03-02T02:36:44.183Z,63.35
2023-03-02T02:37:44.219Z,63.46
2023-03-02T02:38:44.162Z,63.46
2023-03-02T02:39:44.154Z,63.46
2023-03-02T02:40:44.142Z,63.56
2023-03-02T02:41:44.141Z,63.56
2023-03-02T02:42:44.110Z,63.56
2023-03-02T02:43:44.141Z,63.56
2023-03-02T02:44:44.113Z,63.46
2023-03-02T02:45:44.109Z,63.46
2023-03-02T02:46:44.077Z,63.56
2023-03-02T02:47:44.078Z,63.56
2023-03-02T02:48:44.068Z,63.67
2023-03-02T02:49:44.069Z,63.88
2023-03-02T02:50:44.036Z,63.88
2023-03-02T02:51:44.029Z,63.98
2023-03-02T02:52:44.011Z,64.09
2023-03-02T02:53:44.017Z,63.98
2023-03-02T02:54:44.047Z,63.98
2023-03-02T02:55:43.997Z,64.09
2023-03-02T02:56:43.987Z,64.09
2023-03-02T02:57:43.976Z,64.19
2023-03-02T02:58:43.977Z,64.19
2023-03-02T02:59:43.960Z,64.19
2023-03-02T03:00:43.975Z,64.29
2023-03-02T03:01:44.078Z,64.40
2023-03-02T03:02:43.908Z,64.50
2023-03-02T03:03:43.914Z,64.61
2023-03-02T03:04:44.042Z,64.61
2023-03-02T03:05:43.906Z,64.71
2023-03-02T03:06:43.918Z,64.74
2023-03-02T03:07:43.883Z,64.84
2023-03-02T03:08:43.868Z,65.06
2023-03-02T03:09:43.913Z,65.16
2023-03-02T03:10:43.842Z,65.16
2023-03-02T03:11:43.847Z,65.26
2023-03-02T03:12:43.850Z,65.26
2023-03-02T03:13:43.812Z,65.37
2023-03-02T03:14:43.786Z,65.58
2023-03-02T03:15:43.783Z,65.58
2023-03-02T03:16:43.797Z,65.68
2023-03-02T03:17:43.761Z,65.89
2023-03-02T03:18:43.769Z,66.10
2023-03-02T03:19:43.782Z,66.10
2023-03-02T03:20:43.742Z,66.00
2023-03-02T03:21:43.743Z,66.10
2023-03-02T03:22:43.740Z,66.10
2023-03-02T03:23:43.838Z,66.10
2023-03-02T03:24:43.701Z,66.10
2023-03-02T03:25:43.695Z,66.10
2023-03-02T03:26:43.677Z,66.10
2023-03-02T03:27:43.662Z,66.10
2023-03-02T03:28:43.652Z,66.10
2023-03-02T03:29:43.677Z,66.00
2023-03-02T03:30:43.731Z,65.86
2023-03-02T03:31:43.636Z,65.78
2023-03-02T03:32:43.629Z,65.75
2023-03-02T03:33:43.661Z,65.86
2023-03-02T03:34:43.615Z,65.86
2023-03-02T03:35:43.604Z,65.89
2023-03-02T03:36:43.576Z,65.89
2023-03-02T03:37:43.572Z,65.97
2023-03-02T03:38:43.544Z,65.97
2023-03-02T03:39:43.541Z,66.00
2023-03-02T03:40:43.860Z,66.20
2023-03-02T03:41:43.529Z,66.10
2023-03-02T03:42:43.519Z,66.20
2023-03-02T03:43:43.521Z,66.20
2023-03-02T03:44:43.499Z,66.20
2023-03-02T03:45:43.555Z,66.20
2023-03-02T03:46:43.539Z,66.20
2023-03-02T03:47:43.476Z,66.20
2023-03-02T03:48:43.471Z,66.20
2023-03-02T03:49:43.464Z,66.10
2023-03-02T03:50:43.433Z,66.20
2023-03-02T03:51:43.427Z,66.20
2023-03-02T03:52:43.430Z,66.20
2023-03-02T03:53:43.402Z,66.17
2023-03-02T03:54:43.389Z,66.20
2023-03-02T03:55:43.386Z,66.20
2023-03-02T03:56:43.363Z,66.31
2023-03-02T03:57:43.354Z,66.41
2023-03-02T03:58:43.406Z,66.62
2023-03-02T03:59:43.356Z,66.72
2023-03-02T04:00:43.339Z,66.83
2023-03-02T04:01:43.411Z,66.94
2023-03-02T04:02:43.368Z,67.04
2023-03-02T04:03:43.300Z,67.14
2023-03-02T04:04:43.296Z,67.25
2023-03-02T04:05:43.298Z,67.35
2023-03-02T04:06:43.257Z,67.35
2023-03-02T04:07:43.279Z,67.46
2023-03-02T04:08:43.259Z,67.46
2023-03-02T04:09:43.267Z,67.46
2023-03-02T04:10:43.229Z,67.35
2023-03-02T04:11:43.260Z,67.35
2023-03-02T04:12:43.202Z,67.35
2023-03-02T04:13:43.196Z,67.46
2023-03-02T04:14:43.195Z,67.35
2023-03-02T04:15:45.337Z,67.35
2023-03-02T04:16:43.184Z,67.25
2023-03-02T04:17:43.151Z,67.25
2023-03-02T04:18:43.143Z,67.25
2023-03-02T04:19:43.134Z,67.14
2023-03-02T04:20:43.120Z,67.14
2023-03-02T04:21:43.109Z,67.04
2023-03-02T04:22:43.124Z,67.14
2023-03-02T04:23:43.100Z,67.01
2023-03-02T04:24:43.079Z,67.01
2023-03-02T04:25:43.073Z,67.01
2023-03-02T04:26:43.066Z,66.91
2023-03-02T04:27:43.059Z,66.91
2023-03-02T04:28:43.077Z,66.91
2023-03-02T04:29:43.035Z,66.91
2023-03-02T04:30:43.077Z,67.01
2023-03-02T04:31:43.015Z,67.11
2023-03-02T04:32:42.987Z,67.11
2023-03-02T04:33:42.995Z,67.14
2023-03-02T04:34:43.022Z,67.14
2023-03-02T04:35:43.054Z,67.25
2023-03-02T04:36:42.960Z,67.25
2023-03-02T04:37:42.968Z,67.22
2023-03-02T04:38:42.944Z,67.14
2023-03-02T04:39:42.928Z,67.14
2023-03-02T04:40:42.965Z,67.25
2023-03-02T04:41:42.909Z,67.25
2023-03-02T04:42:42.887Z,67.35
2023-03-02T04:43:42.890Z,67.46
2023-03-02T04:44:42.894Z,67.35
2023-03-02T04:45:42.875Z,67.35
2023-03-02T04:46:44.664Z,67.25
2023-03-02T04:47:42.874Z,67.25
2023-03-02T04:48:42.852Z,67.25
2023-03-02T04:49:42.850Z,67.14
2023-03-02T04:50:42.834Z,67.04
2023-03-02T04:51:42.820Z,67.14
2023-03-02T04:52:42.832Z,67.14
2023-03-02T04:53:42.800Z,67.14
2023-03-02T04:54:42.794Z,67.25
2023-03-02T04:55:42.784Z,67.35
2023-03-02T04:56:42.747Z,67.46
2023-03-02T04:57:42.753Z,67.46
2023-03-02T04:58:42.756Z,67.14
2023-03-02T04:59:42.737Z,67.25
2023-03-02T05:00:42.719Z,67.35
2023-03-02T05:01:42.704Z,67.22
2023-03-02T05:02:42.750Z,67.11
2023-03-02T05:03:42.933Z,67.01
2023-03-02T05:04:42.824Z,67.01
2023-03-02T05:05:42.671Z,67.01
2023-03-02T05:06:42.668Z,67.01
2023-03-02T05:07:42.659Z,66.91
2023-03-02T05:08:42.624Z,67.01
2023-03-02T05:09:42.655Z,67.14
2023-03-02T05:10:42.605Z,67.25
2023-03-02T05:11:42.619Z,67.35
2023-03-02T05:12:42.594Z,67.35
2023-03-02T05:13:42.588Z,67.56
2023-03-02T05:14:44.839Z,67.66
2023-03-02T05:15:42.587Z,67.88
2023-03-02T05:16:42.660Z,67.91
2023-03-02T05:17:42.558Z,68.12
2023-03-02T05:18:42.540Z,68.32
2023-03-02T05:19:42.516Z,68.43
2023-03-02T05:20:42.503Z,68.67
2023-03-02T05:21:42.530Z,68.77
2023-03-02T05:22:42.487Z,68.98
2023-03-02T05:23:42.475Z,69.09
2023-03-02T05:24:42.465Z,69.09
2023-03-02T05:25:42.457Z,69.19
2023-03-02T05:26:42.444Z,69.09
2023-03-02T05:27:42.486Z,68.98
2023-03-02T05:28:42.446Z,68.98
2023-03-02T05:29:42.436Z,69.09
2023-03-02T05:30:42.424Z,68.98
2023-03-02T05:31:42.522Z,68.88
2023-03-02T05:32:42.495Z,68.77
2023-03-02T05:33:42.430Z,68.67
2023-03-02T05:34:42.376Z,68.67
2023-03-02T05:35:42.423Z,68.46
2023-03-02T05:36:42.358Z,68.35
2023-03-02T05:37:42.345Z,68.35
2023-03-02T05:38:42.344Z,68.25
2023-03-02T05:39:42.357Z,68.15
2023-03-02T05:40:42.339Z,68.04
2023-03-02T05:41:42.329Z,68.04
2023-03-02T05:42:42.305Z,68.04
2023-03-02T05:43:42.295Z,68.04
2023-03-02T05:44:42.272Z,68.01
2023-03-02T05:45:42.307Z,67.91
2023-03-02T05:46:42.298Z,67.94
2023-03-02T05:47:42.257Z,67.94
2023-03-02T05:48:42.221Z,67.94
2023-03-02T05:49:42.232Z,67.94
2023-03-02T05:50:42.206Z,67.94
2023-03-02T05:51:42.284Z,67.83
2023-03-02T05:52:42.206Z,67.83
2023-03-02T05:53:42.179Z,67.69
2023-03-02T05:54:42.176Z,67.49
2023-03-02T05:55:42.161Z,67.49
2023-03-02T05:56:42.137Z,67.49
2023-03-02T05:57:42.184Z,67.38
2023-03-02T05:58:42.116Z,67.38
2023-03-02T05:59:42.118Z,67.28
2023-03-02T06:00:42.111Z,67.07
2023-03-02T06:01:42.191Z,67.10
2023-03-02T06:02:42.140Z,67.31
2023-03-02T06:03:42.130Z,67.21
2023-03-02T06:04:42.075Z,67.07
2023-03-02T06:05:42.079Z,67.07
2023-03-02T06:06:42.052Z,66.97
2023-03-02T06:07:42.034Z,66.86
2023-03-02T06:08:42.035Z,66.86
2023-03-02T06:09:42.033Z,66.75
2023-03-02T06:10:42.041Z,66.75
2023-03-02T06:11:42.017Z,66.75
2023-03-02T06:12:41.983Z,66.65
2023-03-02T06:13:41.990Z,66.75
2023-03-02T06:14:41.975Z,66.97
2023-03-02T06:15:41.995Z,66.86
2023-03-02T06:16:42.242Z,66.86
2023-03-02T06:17:41.945Z,66.75
2023-03-02T06:18:41.917Z,66.65
2023-03-02T06:19:41.924Z,66.65
2023-03-02T06:20:41.906Z,66.65
2023-03-02T06:21:41.933Z,66.62
2023-03-02T06:22:41.905Z,66.62
2023-03-02T06:23:41.871Z,66.62
2023-03-02T06:24:41.872Z,66.52
2023-03-02T06:25:41.846Z,66.41
2023-03-02T06:26:41.842Z,66.41
2023-03-02T06:27:41.858Z,66.52
2023-03-02T06:28:56.824Z,66.41
2023-03-02T06:29:41.817Z,66.31
2023-03-02T06:30:41.782Z,66.20
2023-03-02T06:31:41.872Z,66.10
2023-03-02T06:32:41.864Z,66.10
2023-03-02T06:33:41.823Z,66.00
2023-03-02T06:34:41.769Z,66.00
2023-03-02T06:35:41.874Z,66.10
2023-03-02T06:36:41.734Z,66.10
2023-03-02T06:37:44.043Z,66.07
2023-03-02T06:38:41.711Z,65.86
2023-03-02T06:39:41.867Z,65.75
2023-03-02T06:40:41.701Z,65.65
2023-03-02T06:41:41.678Z,65.55
2023-03-02T06:42:41.709Z,65.55
2023-03-02T06:43:41.669Z,65.41
2023-03-02T06:44:41.659Z,65.31
2023-03-02T06:45:41.775Z,65.20
2023-03-02T06:46:41.628Z,65.20
2023-03-02T06:47:41.630Z,65.10
2023-03-02T06:48:41.627Z,65.10
2023-03-02T06:49:41.606Z,65.00
2023-03-02T06:50:41.607Z,64.79
2023-03-02T06:51:41.841Z,64.65
2023-03-02T06:52:41.584Z,64.55
2023-03-02T06:53:41.575Z,64.45
2023-03-02T06:54:41.571Z,64.34
2023-03-02T06:55:41.531Z,64.23
2023-03-02T06:56:41.521Z,64.23
2023-03-02T06:57:41.544Z,64.03
2023-03-02T06:58:41.511Z,63.92
2023-03-02T06:59:41.488Z,63.79
2023-03-02T07:00:41.479Z,63.89
2023-03-02T07:01:41.552Z,63.68
2023-03-02T07:02:41.481Z,63.48
2023-03-02T07:03:41.593Z,63.37
2023-03-02T07:04:41.463Z,63.37
2023-03-02T07:05:41.441Z,63.37
2023-03-02T07:06:41.431Z,63.27
2023-03-02T07:07:41.421Z,63.37
2023-03-02T07:08:41.410Z,63.48
2023-03-02T07:09:41.416Z,63.37
2023-03-02T07:10:41.385Z,63.13
2023-03-02T07:11:41.379Z,63.03
2023-03-02T07:12:41.384Z,63.03
2023-03-02T07:13:41.349Z,63.03
2023-03-02T07:14:41.347Z,63.03
2023-03-02T07:15:41.385Z,62.93
2023-03-02T07:16:41.382Z,62.79
2023-03-02T07:17:41.326Z,62.79
2023-03-02T07:18:41.312Z,62.69
2023-03-02T07:19:41.293Z,62.38
2023-03-02T07:20:41.282Z,62.27
2023-03-02T07:21:41.287Z,62.27
2023-03-02T07:22:41.250Z,62.17
2023-03-02T07:23:41.235Z,61.93
2023-03-02T07:24:42.586Z,61.83
2023-03-02T07:25:41.228Z,61.93
2023-03-02T07:26:41.219Z,61.83
2023-03-02T07:27:41.238Z,61.62
2023-03-02T07:28:41.216Z,61.52
2023-03-02T07:29:41.187Z,61.38
2023-03-02T07:30:41.207Z,61.28
2023-03-02T07:31:41.182Z,60.97
2023-03-02T07:32:41.251Z,60.86
2023-03-02T07:33:41.196Z,60.86
2023-03-02T07:34:41.156Z,60.63
2023-03-02T07:35:41.125Z,60.31
2023-03-02T07:36:41.122Z,60.31
2023-03-02T07:37:41.125Z,60.21
2023-03-02T07:38:41.091Z,60.21
2023-03-02T07:39:41.110Z,60.21
2023-03-02T07:40:41.076Z,60.11
2023-03-02T07:41:41.066Z,60.31
2023-03-02T07:42:41.070Z,60.00
2023-03-02T07:43:41.054Z,59.90
2023-03-02T07:44:41.050Z,59.69
2023-03-02T07:45:41.057Z,59.77
2023-03-02T07:46:41.082Z,59.77
2023-03-02T07:47:40.998Z,59.77
2023-03-02T07:48:40.996Z,59.77
2023-03-02T07:49:40.978Z,59.77
2023-03-02T07:50:40.966Z,59.77
2023-03-02T07:51:41.018Z,59.66
2023-03-02T07:52:40.963Z,59.88
2023-03-02T07:53:40.948Z,59.77
2023-03-02T07:54:40.936Z,59.77
2023-03-02T07:55:40.929Z,59.64
2023-03-02T07:56:40.911Z,59.64
2023-03-02T07:57:41.146Z,59.43
2023-03-02T07:58:40.895Z,59.33
2023-03-02T07:59:40.882Z,59.22
2023-03-02T08:00:42.704Z,59.33
2023-03-02T08:01:40.939Z,59.22
2023-03-02T08:02:40.900Z,59.22
2023-03-02T08:03:40.866Z,58.91
2023-03-02T08:04:40.824Z,58.57
2023-03-02T08:05:40.804Z,58.47
2023-03-02T08:06:42.558Z,58.47
2023-03-02T08:07:40.795Z,58.36
2023-03-02T08:08:40.801Z,58.05
2023-03-02T08:09:40.844Z,58.15
2023-03-02T08:10:40.775Z,57.92
2023-03-02T08:11:40.756Z,57.92
2023-03-02T08:12:40.756Z,58.13
2023-03-02T08:13:40.748Z,58.23
2023-03-02T08:14:40.743Z,58.03
2023-03-02T08:15:40.728Z,58.03
2023-03-02T08:16:40.791Z,57.92
2023-03-02T08:17:40.695Z,58.03
2023-03-02T08:18:40.693Z,57.82
2023-03-02T08:19:40.680Z,57.69
2023-03-02T08:20:40.675Z,57.59
2023-03-02T08:21:40.687Z,57.48
2023-03-02T08:22:40.658Z,57.38
2023-03-02T08:23:40.704Z,57.38
2023-03-02T08:24:40.621Z,57.17
2023-03-02T08:25:40.605Z,57.07
2023-03-02T08:26:40.662Z,57.07
2023-03-02T08:27:40.583Z,57.04
2023-03-02T08:28:40.579Z,57.14
2023-03-02T08:29:40.566Z,56.83
2023-03-02T08:30:40.557Z,56.93
2023-03-02T08:31:40.610Z,57.14
2023-03-02T08:32:40.715Z,57.24
2023-03-02T08:33:40.522Z,57.35
2023-03-02T08:34:40.516Z,57.24
2023-03-02T08:35:40.543Z,57.01
2023-03-02T08:36:40.532Z,57.12
2023-03-02T08:37:40.480Z,57.12
2023-03-02T08:38:40.505Z,56.81
2023-03-02T08:39:40.458Z,56.91
2023-03-02T08:40:40.453Z,56.70
2023-03-02T08:41:40.443Z,56.70
2023-03-02T08:42:40.432Z,56.91
2023-03-02T08:43:40.424Z,56.88
2023-03-02T08:44:40.945Z,56.99
2023-03-02T08:45:40.443Z,56.99
2023-03-02T08:46:40.382Z,56.78
2023-03-02T08:47:40.387Z,56.68
2023-03-02T08:48:40.375Z,56.37
2023-03-02T08:49:40.371Z,56.05
2023-03-02T08:50:40.398Z,56.03
2023-03-02T08:51:40.326Z,56.13
2023-03-02T08:52:40.326Z,56.13
2023-03-02T08:53:40.304Z,56.03
2023-03-02T08:54:40.316Z,56.13
2023-03-02T08:55:40.308Z,55.82
2023-03-02T08:56:40.325Z,55.62
2023-03-02T08:57:40.272Z,55.59
2023-03-02T08:58:40.279Z,55.59
2023-03-02T08:59:40.262Z,55.38
2023-03-02T09:00:40.245Z,55.28
2023-03-02T09:01:40.404Z,55.28
2023-03-02T09:02:40.256Z,55.15
2023-03-02T09:03:40.222Z,54.84
2023-03-02T09:04:40.266Z,54.53
2023-03-02T09:05:40.187Z,54.32
2023-03-02T09:06:40.185Z,54.43
2023-03-02T09:07:40.157Z,54.22
2023-03-02T09:08:40.189Z,54.09
2023-03-02T09:09:40.151Z,54.30
2023-03-02T09:10:40.133Z,53.99
2023-03-02T09:11:40.173Z,53.99
2023-03-02T09:12:40.129Z,53.88
2023-03-02T09:13:40.109Z,53.99
2023-03-02T09:14:40.510Z,53.75
2023-03-02T09:15:40.086Z,53.65
2023-03-02T09:16:40.150Z,53.44
2023-03-02T09:17:40.081Z,53.03
2023-03-02T09:18:40.074Z,53.34
2023-03-02T09:19:40.148Z,53.44
2023-03-02T09:20:40.049Z,53.44
2023-03-02T09:21:40.079Z,53.23
2023-03-02T09:22:40.014Z,53.44
2023-03-02T09:23:40.020Z,53.52
2023-03-02T09:24:40.011Z,53.31
2023-03-02T09:25:39.990Z,53.31
2023-03-02T09:26:40.011Z,53.21
2023-03-02T09:27:39.965Z,53.00
2023-03-02T09:28:40.002Z,53.11
2023-03-02T09:29:39.944Z,52.98
2023-03-02T09:30:39.940Z,52.98
2023-03-02T09:31:40.023Z,52.88
2023-03-02T09:32:40.224Z,53.21
2023-03-02T09:33:39.896Z,53.39
2023-03-02T09:34:39.900Z,53.00
2023-03-02T09:35:39.889Z,53.08
2023-03-02T09:36:39.883Z,53.08
2023-03-02T09:37:39.972Z,52.78
2023-03-02T09:38:39.865Z,52.78
2023-03-02T09:39:39.950Z,52.78
2023-03-02T09:40:39.852Z,52.98
2023-03-02T09:41:39.830Z,52.88
2023-03-02T09:42:44.280Z,52.78
2023-03-02T09:43:40.031Z,52.57
2023-03-02T09:44:39.794Z,52.67
2023-03-02T09:45:39.883Z,52.78
2023-03-02T09:46:39.767Z,53.08
2023-03-02T09:47:39.779Z,53.29
2023-03-02T09:48:39.756Z,52.95
2023-03-02T09:49:39.756Z,52.86
2023-03-02T09:50:39.751Z,53.06
2023-03-02T09:51:39.730Z,53.16
2023-03-02T09:52:39.732Z,53.58
2023-03-02T09:53:39.715Z,53.47
2023-03-02T09:54:39.824Z,53.27
2023-03-02T09:55:39.725Z,53.27
2023-03-02T09:56:39.694Z,53.37
2023-03-02T09:57:39.673Z,53.66
2023-03-02T09:58:39.689Z,53.34
2023-03-02T09:59:39.663Z,53.24
2023-03-02T10:00:39.644Z,53.14
2023-03-02T10:01:39.653Z,53.03
2023-03-02T10:02:39.624Z,53.01
2023-03-02T10:03:39.777Z,53.01
2023-03-02T10:04:39.683Z,52.91
2023-03-02T10:05:39.581Z,52.70
2023-03-02T10:06:39.583Z,52.39
2023-03-02T10:07:39.591Z,52.39
2023-03-02T10:08:39.577Z,51.98
2023-03-02T10:09:39.547Z,51.87
2023-03-02T10:10:39.554Z,52.08
2023-03-02T10:11:39.534Z,52.19
2023-03-02T10:12:39.501Z,52.50
2023-03-02T10:13:39.530Z,52.58
2023-03-02T10:14:39.495Z,52.68
2023-03-02T10:15:39.493Z,52.37
2023-03-02T10:16:39.535Z,52.78
2023-03-02T10:17:39.461Z,52.58
2023-03-02T10:18:39.518Z,52.26
2023-03-02T10:19:39.453Z,52.45
2023-03-02T10:20:39.432Z,52.45
2023-03-02T10:21:39.412Z,52.14
2023-03-02T10:22:39.420Z,52.03
2023-03-02T10:23:39.395Z,52.34
2023-03-02T10:24:39.389Z,52.45
2023-03-02T10:25:39.414Z,52.53
2023-03-02T10:26:39.371Z,52.53
2023-03-02T10:27:39.457Z,52.42
2023-03-02T10:28:39.360Z,52.22
2023-03-02T10:29:39.319Z,52.11
2023-03-02T10:30:39.341Z,52.11
2023-03-02T10:31:39.350Z,52.42
2023-03-02T10:32:39.302Z,52.42
2023-03-02T10:33:39.294Z,52.22
2023-03-02T10:34:39.275Z,52.40
2023-03-02T10:35:39.279Z,52.61
2023-03-02T10:36:39.273Z,52.50
2023-03-02T10:37:39.284Z,52.50
2023-03-02T10:38:39.242Z,52.40
2023-03-02T10:39:39.251Z,52.19
2023-03-02T10:40:39.239Z,52.48
2023-03-02T10:41:40.047Z,52.27
2023-03-02T10:42:39.202Z,52.06
2023-03-02T10:43:39.230Z,52.58
2023-03-02T10:44:39.174Z,52.58
2023-03-02T10:45:39.178Z,52.69
2023-03-02T10:46:39.168Z,52.37
2023-03-02T10:47:39.161Z,52.58
2023-03-02T10:48:41.117Z,52.56
2023-03-02T10:49:39.138Z,52.66
2023-03-02T10:50:39.128Z,52.45
2023-03-02T10:51:39.099Z,52.25
2023-03-02T10:52:42.371Z,52.25
2023-03-02T10:53:39.073Z,52.43
2023-03-02T10:54:39.089Z,52.43
2023-03-02T10:55:39.086Z,52.43
2023-03-02T10:56:39.049Z,52.73
2023-03-02T10:57:39.052Z,53.05
2023-03-02T10:58:39.040Z,52.53
2023-03-02T10:59:39.024Z,52.30
2023-03-02T11:00:39.009Z,52.09
2023-03-02T11:01:39.090Z,51.58
2023-03-02T11:02:38.989Z,51.79
2023-03-02T11:03:38.981Z,51.89
2023-03-02T11:04:39.065Z,52.20
2023-03-02T11:05:38.971Z,52.07
2023-03-02T11:06:38.955Z,51.76
2023-03-02T11:07:38.962Z,51.76
2023-03-02T11:08:38.934Z,51.87
2023-03-02T11:09:38.960Z,51.97
2023-03-02T11:10:38.916Z,51.84
2023-03-02T11:11:38.989Z,51.33
2023-03-02T11:12:38.900Z,51.64
2023-03-02T11:13:38.890Z,51.33
2023-03-02T11:14:38.864Z,51.12
2023-03-02T11:15:38.917Z,51.02
2023-03-02T11:16:38.871Z,50.69
2023-03-02T11:17:38.849Z,50.90
2023-03-02T11:18:38.832Z,51.31
2023-03-02T11:19:38.825Z,50.99
2023-03-02T11:20:38.812Z,50.90
2023-03-02T11:21:38.789Z,51.41
2023-03-02T11:22:38.772Z,51.51
2023-03-02T11:23:38.769Z,51.41
2023-03-02T11:24:38.775Z,51.92
2023-03-02T11:25:38.749Z,51.48
2023-03-02T11:26:38.771Z,51.07
2023-03-02T11:27:38.743Z,51.07
2023-03-02T11:28:38.723Z,50.97
2023-03-02T11:29:38.728Z,50.87
2023-03-02T11:30:38.717Z,50.87
2023-03-02T11:31:38.773Z,51.07
2023-03-02T11:32:38.808Z,51.48
2023-03-02T11:33:38.715Z,51.48
2023-03-02T11:34:38.646Z,51.36
2023-03-02T11:35:38.690Z,51.05
2023-03-02T11:36:38.647Z,50.74
2023-03-02T11:37:38.660Z,50.02
2023-03-02T11:38:38.627Z,50.13
2023-03-02T11:39:46.520Z,49.90
2023-03-02T11:40:38.603Z,49.18
2023-03-02T11:41:38.578Z,49.39
2023-03-02T11:42:38.593Z,49.18
2023-03-02T11:43:38.591Z,50.10
2023-03-02T11:44:38.550Z,49.29
2023-03-02T11:45:38.555Z,49.29
2023-03-02T11:46:38.603Z,49.06
2023-03-02T11:47:38.531Z,48.65
2023-03-02T11:48:38.528Z,48.85
2023-03-02T11:49:38.532Z,48.65
2023-03-02T11:50:38.500Z,48.65
2023-03-02T11:51:44.454Z,48.65
2023-03-02T11:52:38.477Z,48.55
2023-03-02T11:53:38.493Z,48.93
2023-03-02T11:54:38.443Z,48.63
2023-03-02T11:55:38.441Z,48.22
2023-03-02T11:56:38.420Z,47.81
2023-03-02T11:57:39.613Z,48.01
2023-03-02T11:58:38.398Z,48.30
2023-03-02T11:59:38.405Z,48.30
2023-03-02T12:00:38.390Z,47.89
2023-03-02T12:01:38.392Z,47.89
2023-03-02T12:02:38.390Z,47.58
2023-03-02T12:03:38.396Z,47.58
2023-03-02T12:04:38.357Z,47.38
2023-03-02T12:05:38.445Z,47.35
2023-03-02T12:06:38.337Z,47.66
2023-03-02T12:07:38.322Z,47.35
2023-03-02T12:08:38.317Z,47.35
2023-03-02T12:09:38.313Z,47.56
2023-03-02T12:10:38.279Z,47.35
2023-03-02T12:11:38.286Z,46.74
2023-03-02T12:12:38.258Z,47.15
2023-03-02T12:13:38.255Z,47.25
2023-03-02T12:14:38.290Z,47.05
2023-03-02T12:15:38.255Z,46.64
2023-03-02T12:16:38.314Z,46.84
2023-03-02T12:17:38.228Z,47.05
2023-03-02T12:18:38.208Z,46.72
2023-03-02T12:19:38.223Z,46.62
2023-03-02T12:20:38.217Z,46.31
2023-03-02T12:21:38.232Z,45.90
2023-03-02T12:22:38.178Z,46.11
2023-03-02T12:23:38.166Z,46.70
2023-03-02T12:24:38.146Z,46.59
2023-03-02T12:25:38.165Z,46.39
2023-03-02T12:26:38.117Z,46.08
2023-03-02T12:27:38.201Z,46.29
2023-03-02T12:28:38.160Z,46.19
2023-03-02T12:29:38.102Z,45.98
2023-03-02T12:30:38.087Z,45.67
2023-03-02T12:31:38.134Z,45.26
2023-03-02T12:32:38.337Z,44.94
2023-03-02T12:33:38.082Z,45.14
2023-03-02T12:34:38.045Z,45.14
2023-03-02T12:35:38.115Z,45.14
2023-03-02T12:36:38.061Z,45.14
2023-03-02T12:37:38.015Z,45.25
2023-03-02T12:38:38.020Z,45.25
2023-03-02T12:39:37.995Z,45.04
2023-03-02T12:40:38.001Z,45.04
2023-03-02T12:41:37.997Z,44.94
2023-03-02T12:42:37.997Z,44.84
2023-03-02T12:43:37.977Z,44.94
2023-03-02T12:44:37.938Z,45.04
2023-03-02T12:45:37.971Z,45.14
2023-03-02T12:46:37.925Z,45.45
2023-03-02T12:47:38.158Z,45.53
2023-03-02T12:48:37.995Z,45.02
2023-03-02T12:49:37.884Z,45.02
2023-03-02T12:50:37.867Z,45.22
2023-03-02T12:51:37.940Z,45.32
2023-03-02T12:52:37.902Z,45.32